createdAt,value
2023-06-17T00:00:36.908Z,11.23
2023-06-17T00:02:39.697Z,8.45
2023-06-17T00:04:42.364Z,10.75
2023-06-17T00:06:44.993Z,15.68
2023-06-17T00:08:47.653Z,11.13
2023-06-17T00:10:51.650Z,8.77
2023-06-17T00:12:55.587Z,10.93
2023-06-17T00:14:58.463Z,13.45
2023-06-17T00:17:01.909Z,10.77
2023-06-17T00:19:05.457Z,11.60
2023-06-17T00:21:10.293Z,12.38
2023-06-17T00:23:13.143Z,7.30
2023-06-17T00:25:15.812Z,10.23
2023-06-17T00:27:19.869Z,10.05
2023-06-17T00:29:22.788Z,8.95
2023-06-17T00:31:27.862Z,10.20
2023-06-17T00:33:30.585Z,13.15
2023-06-17T00:35:33.639Z,12.10
2023-06-17T00:37:36.263Z,11.10
2023-06-17T00:39:40.041Z,14.07
2023-06-17T00:41:42.682Z,9.98
2023-06-17T00:43:46.977Z,10.48
2023-06-17T00:45:49.698Z,9.82
2023-06-17T00:47:53.462Z,10.90
2023-06-17T00:49:56.463Z,14.70
2023-06-17T00:54:14.848Z,9.93
2023-06-17T00:56:18.888Z,9.35
2023-06-17T00:58:21.714Z,10.98
2023-06-17T01:00:26.133Z,9.38
2023-06-17T01:02:29.134Z,8.80
2023-06-17T01:04:32.911Z,9.27
2023-06-17T01:06:42.475Z,9.60
2023-06-17T01:08:52.388Z,16.00
2023-06-17T01:11:01.807Z,11.25
2023-06-17T01:13:06.631Z,13.70
2023-06-17T01:15:11.748Z,12.63
2023-06-17T01:17:19.039Z,10.18
2023-06-17T01:19:25.911Z,12.82
2023-06-17T01:21:29.755Z,14.98
2023-06-17T01:23:36.018Z,8.75
2023-06-17T01:25:40.909Z,11.05
2023-06-17T01:27:43.560Z,10.00
2023-06-17T01:29:50.228Z,10.02
2023-06-17T01:31:53.102Z,10.95
2023-06-17T01:33:58.426Z,15.60
2023-06-17T01:36:05.505Z,14.35
2023-06-17T01:38:11.957Z,9.25
2023-06-17T01:40:16.307Z,15.10
2023-06-17T01:42:23.052Z,12.00
2023-06-17T01:44:27.483Z,14.02
2023-06-17T01:46:30.555Z,9.98
2023-06-17T01:48:33.566Z,16.70
2023-06-17T01:50:36.414Z,11.07
2023-06-17T01:52:39.208Z,11.75
2023-06-17T01:54:41.877Z,11.55
2023-06-17T01:56:44.585Z,10.95
2023-06-17T01:58:48.602Z,11.50
2023-06-17T02:00:51.568Z,9.50
2023-06-17T02:02:54.316Z,11.35
2023-06-17T02:04:57.131Z,15.23
2023-06-17T02:07:00.390Z,15.65
2023-06-17T02:09:04.045Z,13.75
2023-06-17T02:11:06.716Z,13.73
2023-06-17T02:13:09.640Z,12.43
2023-06-17T02:15:13.871Z,10.98
2023-06-17T02:17:16.760Z,13.57
2023-06-17T02:19:19.412Z,12.07
2023-06-17T02:21:22.142Z,13.77
2023-06-17T02:23:24.812Z,10.60
2023-06-17T02:25:27.471Z,11.98
2023-06-17T02:27:30.147Z,14.82
2023-06-17T02:29:32.794Z,10.38
2023-06-17T02:31:36.891Z,12.73
2023-06-17T02:33:39.667Z,13.73
2023-06-17T02:35:42.348Z,8.90
2023-06-17T02:37:45.641Z,12.05
2023-06-17T02:39:48.321Z,10.38
2023-06-17T02:41:50.963Z,10.00
2023-06-17T02:43:53.617Z,14.30
2023-06-17T02:45:56.220Z,9.73
2023-06-17T02:48:00.519Z,12.40
2023-06-17T02:50:03.943Z,14.88
2023-06-17T02:52:07.608Z,9.90
2023-06-17T02:54:11.908Z,10.40
2023-06-17T02:56:14.564Z,10.98
2023-06-17T02:58:19.982Z,10.95
2023-06-17T03:00:23.347Z,10.88
2023-06-17T03:02:26.275Z,12.93
2023-06-17T03:04:35.915Z,11.60
2023-06-17T03:06:38.855Z,11.52
2023-06-17T03:08:43.046Z,10.98
2023-06-17T03:10:45.648Z,10.52
2023-06-17T03:12:48.275Z,9.02
2023-06-17T03:14:53.701Z,11.45
2023-06-17T03:16:58.650Z,10.45
2023-06-17T03:19:01.662Z,12.98
2023-06-17T03:21:05.943Z,12.90
2023-06-17T03:23:08.634Z,11.88
2023-06-17T03:25:14.219Z,14.70
2023-06-17T03:27:16.901Z,11.30
2023-06-17T03:29:20.444Z,10.05
2023-06-17T03:31:23.776Z,12.70
2023-06-17T03:33:26.494Z,10.20
2023-06-17T03:35:29.166Z,12.45
2023-06-17T03:37:33.136Z,12.30
2023-06-17T03:39:35.850Z,11.70
2023-06-17T03:41:38.535Z,10.75
2023-06-17T03:43:41.647Z,14.50
2023-06-17T03:45:44.439Z,11.55
2023-06-17T03:47:47.519Z,12.80
2023-06-17T03:49:50.197Z,12.35
2023-06-17T03:51:52.822Z,13.23
2023-06-17T03:53:56.803Z,11.00
2023-06-17T03:55:59.561Z,12.23
2023-06-17T03:58:02.194Z,9.63
2023-06-17T04:00:07.305Z,11.98
2023-06-17T04:02:10.021Z,11.23
2023-06-17T04:04:12.679Z,13.20
2023-06-17T04:06:17.512Z,10.05
2023-06-17T04:08:23.331Z,10.60
2023-06-17T04:10:28.075Z,11.07
2023-06-17T04:12:30.989Z,11.63
2023-06-17T04:14:33.658Z,9.57
2023-06-17T04:16:36.893Z,10.65
2023-06-17T04:18:41.661Z,15.75
2023-06-17T04:20:45.596Z,14.48
2023-06-17T04:22:48.339Z,15.73
2023-06-17T04:24:57.158Z,16.77
2023-06-17T04:27:01.242Z,11.27
2023-06-17T04:29:04.594Z,12.05
2023-06-17T04:31:11.905Z,13.18
2023-06-17T04:33:15.819Z,12.10
2023-06-17T04:35:20.143Z,10.50
2023-06-17T04:37:23.218Z,12.13
2023-06-17T04:39:27.482Z,10.93
2023-06-17T04:41:33.703Z,11.55
2023-06-17T04:43:38.908Z,9.73
2023-06-17T04:45:41.567Z,10.15
2023-06-17T04:47:44.320Z,10.95
2023-06-17T04:49:49.115Z,9.77
2023-06-17T04:51:53.839Z,13.25
2023-06-17T04:53:57.870Z,11.23
2023-06-17T04:56:01.629Z,10.50
2023-06-17T04:58:05.859Z,11.20
2023-06-17T05:00:12.420Z,11.27
2023-06-17T05:02:15.461Z,12.00
2023-06-17T05:04:18.154Z,14.55
2023-06-17T05:06:26.188Z,11.68
2023-06-17T05:08:28.844Z,11.10
2023-06-17T05:10:31.471Z,9.80
2023-06-17T05:12:34.091Z,11.18
2023-06-17T05:14:36.758Z,11.00
2023-06-17T05:16:41.411Z,13.30
2023-06-17T05:18:44.135Z,13.95
2023-06-17T05:20:46.774Z,12.43
2023-06-17T05:22:49.551Z,9.73
2023-06-17T05:24:52.202Z,10.85
2023-06-17T05:26:54.782Z,9.27
2023-06-17T05:28:58.208Z,12.48
2023-06-17T05:31:00.851Z,11.73
2023-06-17T05:33:04.963Z,17.65
2023-06-17T05:35:08.473Z,11.82
2023-06-17T05:37:11.438Z,12.35
2023-06-17T05:39:14.289Z,9.73
2023-06-17T05:41:16.985Z,12.98
2023-06-17T05:43:19.645Z,10.63
2023-06-17T05:45:22.388Z,10.88
2023-06-17T05:47:25.128Z,13.38
2023-06-17T05:49:29.163Z,12.63
2023-06-17T05:51:31.824Z,9.65
2023-06-17T05:53:34.456Z,15.40
2023-06-17T05:55:37.162Z,10.00
2023-06-17T05:57:39.964Z,10.27
2023-06-17T05:59:42.612Z,13.50
2023-06-17T06:01:45.307Z,11.40
2023-06-17T06:03:48.041Z,14.50
2023-06-17T06:05:52.100Z,13.88
2023-06-17T06:07:54.764Z,11.38
2023-06-17T06:09:57.388Z,10.93
2023-06-17T06:12:00.083Z,9.27
2023-06-17T06:14:02.771Z,12.40
2023-06-17T06:16:05.809Z,10.45
2023-06-17T06:18:08.639Z,12.63
2023-06-17T06:20:12.150Z,12.20
2023-06-17T06:22:16.154Z,12.52
2023-06-17T06:24:18.884Z,11.27
2023-06-17T06:26:22.413Z,14.20
2023-06-17T06:28:25.169Z,10.00
2023-06-17T06:30:27.805Z,12.73
2023-06-17T06:32:30.634Z,12.38
2023-06-17T06:34:33.335Z,9.05
2023-06-17T06:36:36.766Z,11.57
2023-06-17T06:38:43.291Z,12.48
2023-06-17T06:40:46.071Z,11.68
2023-06-17T06:42:48.703Z,13.05
2023-06-17T06:44:51.326Z,11.43
2023-06-17T06:46:56.767Z,9.65
2023-06-17T06:49:00.259Z,9.02
2023-06-17T06:51:03.821Z,12.25
2023-06-17T06:53:06.510Z,10.10
2023-06-17T06:55:10.866Z,11.18
2023-06-17T06:57:13.592Z,12.00
2023-06-17T06:59:16.362Z,9.75
2023-06-17T07:01:19.232Z,12.07
2023-06-17T07:03:22.024Z,11.98
2023-06-17T07:05:24.868Z,12.95
2023-06-17T07:07:27.570Z,14.45
2023-06-17T07:09:30.273Z,11.80
2023-06-17T07:11:34.301Z,13.88
2023-06-17T07:13:37.049Z,14.88
2023-06-17T07:15:39.660Z,8.98
2023-06-17T07:17:42.459Z,9.80
2023-06-17T07:19:45.120Z,9.63
2023-06-17T07:21:49.826Z,13.38
2023-06-17T07:26:00.167Z,11.93
2023-06-17T07:28:04.414Z,12.02
2023-06-17T07:30:09.203Z,12.60
2023-06-17T07:32:11.985Z,11.82
2023-06-17T07:34:14.725Z,12.15
2023-06-17T07:36:17.562Z,16.77
2023-06-17T07:38:20.479Z,11.18
2023-06-17T07:40:23.344Z,8.68
2023-06-17T07:42:26.197Z,10.98
2023-06-17T07:44:33.522Z,11.85
2023-06-17T07:46:36.173Z,11.32
2023-06-17T07:48:38.783Z,11.93
2023-06-17T07:50:41.399Z,12.38
2023-06-17T07:52:47.108Z,10.63
2023-06-17T07:54:52.320Z,11.63
2023-06-17T07:56:55.388Z,20.00
2023-06-17T07:58:58.137Z,8.27
2023-06-17T08:01:02.790Z,8.88
2023-06-17T08:03:07.870Z,11.82
2023-06-17T08:05:11.463Z,9.40
2023-06-17T08:07:14.253Z,8.07
2023-06-17T08:09:16.955Z,8.52
2023-06-17T08:11:19.930Z,12.43
2023-06-17T08:13:22.664Z,10.50
2023-06-17T08:15:25.383Z,9.82
2023-06-17T08:17:29.589Z,7.60
2023-06-17T08:19:35.233Z,9.52
2023-06-17T08:21:43.308Z,11.95
2023-06-17T08:26:12.802Z,9.70
2023-06-17T08:28:15.605Z,9.07
2023-06-17T08:30:29.471Z,10.63
2023-06-17T08:32:41.216Z,10.43
2023-06-17T08:37:05.145Z,8.98
2023-06-17T08:41:22.560Z,12.32
2023-06-17T08:43:27.416Z,14.55
2023-06-17T08:45:34.660Z,10.02
2023-06-17T08:47:40.644Z,9.30
2023-06-17T08:49:50.773Z,8.63
2023-06-17T08:51:53.874Z,11.05
2023-06-17T08:54:00.356Z,10.82
2023-06-17T08:56:06.646Z,12.77
2023-06-17T08:58:23.046Z,9.82
2023-06-17T09:00:39.807Z,8.57
2023-06-17T09:02:47.690Z,7.88
2023-06-17T09:04:53.801Z,6.70
2023-06-17T09:07:00.496Z,13.13
2023-06-17T09:09:13.358Z,11.10
2023-06-17T09:11:19.129Z,7.80
2023-06-17T09:13:22.134Z,13.43
2023-06-17T09:15:27.783Z,10.57
2023-06-17T09:17:59.122Z,12.45
2023-06-17T09:20:17.576Z,10.52
2023-06-17T09:22:20.593Z,6.85
2023-06-17T09:24:32.165Z,9.00
2023-06-17T09:28:48.545Z,8.43
2023-06-17T09:30:54.746Z,9.95
2023-06-17T09:32:58.951Z,9.38
2023-06-17T09:35:05.416Z,7.43
2023-06-17T09:37:44.605Z,8.55
2023-06-17T09:40:01.278Z,6.82
2023-06-17T09:42:15.840Z,7.72
2023-06-17T09:47:14.787Z,7.07
2023-06-17T09:49:27.225Z,5.75
2023-06-17T09:53:50.909Z,4.03
2023-06-17T09:56:12.950Z,4.20
2023-06-17T09:58:45.005Z,4.68
2023-06-17T10:00:53.014Z,7.30
2023-06-17T10:03:04.392Z,7.78
2023-06-17T10:05:08.790Z,5.70
2023-06-17T10:07:41.157Z,8.48
2023-06-17T10:09:44.106Z,7.93
2023-06-17T10:11:50.229Z,6.10
2023-06-17T10:13:58.300Z,5.90
2023-06-17T10:16:03.327Z,6.25
2023-06-17T10:18:09.148Z,8.30
2023-06-17T10:20:14.077Z,6.30
2023-06-17T10:22:20.937Z,5.70
2023-06-17T10:24:25.367Z,7.90
2023-06-17T10:26:31.988Z,5.35
2023-06-17T10:28:58.576Z,8.02
2023-06-17T10:31:10.711Z,9.20
2023-06-17T10:33:14.019Z,8.02
2023-06-17T10:35:16.740Z,52.30
2023-06-17T10:37:28.784Z,21.55
2023-06-17T10:39:31.443Z,17.65
2023-06-17T10:41:59.038Z,14.25
2023-06-17T10:44:03.383Z,6.82
2023-06-17T10:46:07.351Z,48.35
2023-06-17T10:48:16.474Z,9.95
2023-06-17T10:50:23.458Z,9.15
2023-06-17T10:52:26.268Z,7.15
2023-06-17T10:54:29.392Z,8.95
2023-06-17T10:56:33.881Z,7.25
2023-06-17T10:58:38.358Z,14.60
2023-06-17T11:00:41.014Z,6.70
2023-06-17T11:02:45.012Z,6.00
2023-06-17T11:04:49.573Z,6.63
2023-06-17T11:06:52.240Z,8.85
2023-06-17T11:08:54.819Z,8.68
2023-06-17T11:11:07.980Z,8.98
2023-06-17T11:13:10.589Z,7.97
2023-06-17T11:15:13.252Z,9.85
2023-06-17T11:17:16.098Z,11.45
2023-06-17T11:19:20.130Z,7.57
2023-06-17T11:21:22.798Z,6.38
2023-06-17T11:23:27.410Z,6.13
2023-06-17T11:25:43.588Z,6.22
2023-06-17T11:27:48.120Z,5.18
2023-06-17T11:29:50.963Z,10.10
2023-06-17T11:31:53.687Z,8.30
2023-06-17T11:34:00.366Z,6.85
2023-06-17T11:36:08.521Z,9.20
2023-06-17T11:38:12.402Z,6.90
2023-06-17T11:40:15.142Z,10.50
2023-06-17T11:42:17.884Z,8.38
2023-06-17T11:44:21.044Z,9.48
2023-06-17T11:46:25.710Z,6.18
2023-06-17T11:48:29.639Z,5.43
2023-06-17T11:50:32.311Z,9.27
2023-06-17T11:52:36.859Z,7.47
2023-06-17T11:54:46.687Z,8.48
2023-06-17T11:56:50.002Z,6.88
2023-06-17T11:58:54.000Z,8.07
2023-06-17T12:01:00.467Z,11.50
2023-06-17T12:03:04.890Z,10.85
2023-06-17T12:05:07.991Z,6.88
2023-06-17T12:07:10.773Z,8.50
2023-06-17T12:09:16.660Z,7.15
2023-06-17T12:11:23.996Z,8.27
2023-06-17T12:13:28.503Z,7.80
2023-06-17T12:15:36.755Z,8.57
2023-06-17T12:17:40.347Z,7.97
2023-06-17T12:19:42.995Z,9.40
2023-06-17T12:21:45.987Z,7.93
2023-06-17T12:23:50.297Z,9.23
2023-06-17T12:25:54.537Z,7.60
2023-06-17T12:27:59.103Z,9.15
2023-06-17T12:30:02.277Z,7.78
2023-06-17T12:32:05.953Z,7.65
2023-06-17T12:34:08.631Z,5.70
2023-06-17T12:36:11.317Z,7.95
2023-06-17T12:38:14.008Z,7.45
2023-06-17T12:40:16.622Z,5.88
2023-06-17T12:42:20.777Z,6.88
2023-06-17T12:44:23.515Z,7.15
2023-06-17T12:46:26.309Z,7.32
2023-06-17T12:48:30.114Z,6.00
2023-06-17T12:50:34.646Z,10.65
2023-06-17T12:52:37.319Z,6.93
2023-06-17T12:54:40.179Z,8.07
2023-06-17T12:56:43.506Z,5.45
2023-06-17T12:58:47.626Z,6.10
2023-06-17T13:00:50.408Z,5.78
2023-06-17T13:02:53.052Z,11.50
2023-06-17T13:04:56.521Z,5.93
2023-06-17T13:06:59.355Z,9.18
2023-06-17T13:09:01.986Z,5.43
2023-06-17T13:11:04.656Z,6.60
2023-06-17T13:13:08.876Z,5.95
2023-06-17T13:15:13.263Z,7.97
2023-06-17T13:17:16.068Z,5.65
2023-06-17T13:19:19.452Z,6.60
2023-06-17T13:21:22.370Z,7.53
2023-06-17T13:23:24.996Z,7.82
2023-06-17T13:25:27.913Z,5.63
2023-06-17T13:27:31.716Z,6.03
2023-06-17T13:29:34.836Z,8.25
2023-06-17T13:31:39.236Z,6.50
2023-06-17T13:33:42.271Z,5.90
2023-06-17T13:35:45.031Z,4.82
2023-06-17T13:37:47.709Z,9.57
2023-06-17T13:39:50.422Z,8.27
2023-06-17T13:41:53.162Z,5.97
2023-06-17T13:43:55.778Z,6.68
2023-06-17T13:45:58.519Z,4.85
2023-06-17T13:48:02.673Z,8.55
2023-06-17T13:50:08.740Z,5.95
2023-06-17T13:52:13.733Z,6.70
2023-06-17T13:54:19.413Z,6.70
2023-06-17T13:56:22.061Z,7.68
2023-06-17T13:58:24.692Z,6.65
2023-06-17T14:00:27.560Z,11.75
2023-06-17T14:02:30.196Z,4.57
2023-06-17T14:04:34.682Z,4.88
2023-06-17T14:06:37.320Z,6.15
2023-06-17T14:08:40.040Z,7.50
2023-06-17T14:10:42.763Z,6.07
2023-06-17T14:12:45.420Z,5.07
2023-06-17T14:14:48.078Z,7.18
2023-06-17T14:16:50.903Z,7.50
2023-06-17T14:18:53.591Z,5.40
2023-06-17T14:20:57.592Z,7.60
2023-06-17T14:23:01.185Z,4.75
2023-06-17T14:25:04.017Z,4.78
2023-06-17T14:27:43.201Z,5.57
2023-06-17T14:29:45.843Z,6.43
2023-06-17T14:31:48.478Z,5.18
2023-06-17T14:33:51.357Z,6.43
2023-06-17T14:35:53.973Z,6.25
2023-06-17T14:37:57.952Z,5.10
2023-06-17T14:40:02.173Z,5.68
2023-06-17T14:42:05.370Z,8.93
2023-06-17T14:44:08.000Z,7.00
2023-06-17T14:46:11.368Z,5.80
2023-06-17T14:48:14.044Z,5.80
2023-06-17T14:50:16.759Z,5.57
2023-06-17T14:52:19.484Z,6.35
2023-06-17T14:54:23.487Z,6.30
2023-06-17T14:56:28.636Z,5.93
2023-06-17T14:58:31.300Z,5.40
2023-06-17T15:00:33.980Z,7.07
2023-06-17T15:02:52.893Z,5.82
2023-06-17T15:04:55.586Z,6.03
2023-06-17T15:06:58.282Z,6.68
2023-06-17T15:09:10.368Z,7.43
2023-06-17T15:11:14.434Z,5.35
2023-06-17T15:13:17.088Z,4.82
2023-06-17T15:15:20.055Z,9.25
2023-06-17T15:17:23.190Z,4.95
2023-06-17T15:19:25.838Z,5.43
2023-06-17T15:21:28.454Z,5.88
2023-06-17T15:23:31.194Z,4.50
2023-06-17T15:25:34.119Z,5.32
2023-06-17T15:27:38.099Z,7.35
2023-06-17T15:29:41.297Z,4.60
2023-06-17T15:31:45.258Z,4.40
2023-06-17T15:33:47.900Z,4.97
2023-06-17T15:35:50.645Z,7.85
2023-06-17T15:37:53.349Z,10.05
2023-06-17T15:39:55.996Z,8.68
2023-06-17T15:41:58.611Z,4.97
2023-06-17T15:44:03.270Z,5.18
2023-06-17T15:46:05.897Z,6.13
2023-06-17T15:48:08.589Z,4.53
2023-06-17T15:50:12.113Z,5.85
2023-06-17T15:52:14.752Z,7.93
2023-06-17T15:54:19.178Z,6.80
2023-06-17T15:56:22.353Z,7.05
2023-06-17T15:58:25.033Z,4.90
2023-06-17T16:00:28.995Z,7.43
2023-06-17T16:02:31.718Z,6.10
2023-06-17T16:04:34.904Z,7.25
2023-06-17T16:06:37.576Z,9.23
2023-06-17T16:08:40.601Z,6.00
2023-06-17T16:10:43.279Z,7.05
2023-06-17T16:12:46.083Z,5.57
2023-06-17T16:14:48.695Z,13.00
2023-06-17T16:16:52.657Z,5.38
2023-06-17T16:18:55.279Z,4.78
2023-06-17T16:20:57.989Z,7.15
2023-06-17T16:23:00.706Z,6.47
2023-06-17T16:25:03.459Z,9.63
2023-06-17T16:27:06.389Z,8.00
2023-06-17T16:29:12.357Z,11.25
2023-06-17T16:31:15.070Z,4.82
2023-06-17T16:33:19.023Z,5.15
2023-06-17T16:35:21.707Z,10.32
2023-06-17T16:37:25.701Z,6.85
2023-06-17T16:39:28.711Z,6.10
2023-06-17T16:41:31.365Z,5.80
2023-06-17T16:43:34.009Z,5.45
2023-06-17T16:45:36.720Z,5.40
2023-06-17T16:47:39.688Z,7.22
2023-06-17T16:49:43.942Z,5.93
2023-06-17T16:51:46.566Z,6.15
2023-06-17T16:53:49.180Z,6.40
2023-06-17T16:55:51.801Z,6.00
2023-06-17T16:57:54.469Z,6.65
2023-06-17T16:59:57.099Z,9.55
2023-06-17T17:02:00.715Z,7.63
2023-06-17T17:04:12.017Z,9.15
2023-06-17T17:08:18.706Z,10.15
2023-06-17T17:10:24.385Z,6.53
2023-06-17T17:12:27.260Z,11.05
2023-06-17T17:14:29.894Z,7.50
2023-06-17T17:16:32.773Z,7.80
2023-06-17T17:18:35.556Z,6.13
2023-06-17T17:20:38.309Z,8.63
2023-06-17T17:22:43.142Z,10.80
2023-06-17T17:24:45.885Z,5.93
2023-06-17T17:26:48.522Z,9.88
2023-06-17T17:28:51.150Z,8.73
2023-06-17T17:30:53.986Z,7.93
2023-06-17T17:32:56.672Z,7.25
2023-06-17T17:34:59.375Z,14.45
2023-06-17T17:37:01.990Z,6.90
2023-06-17T17:39:07.886Z,7.63
2023-06-17T17:41:10.672Z,8.63
2023-06-17T17:43:13.360Z,7.97
2023-06-17T17:45:16.695Z,11.32
2023-06-17T17:47:19.337Z,8.57
2023-06-17T17:49:22.767Z,7.78
2023-06-17T17:51:25.745Z,6.72
2023-06-17T17:53:29.567Z,8.98
2023-06-17T17:55:33.618Z,10.85
2023-06-17T17:57:36.292Z,10.52
2023-06-17T17:59:38.876Z,9.25
2023-06-17T18:01:41.520Z,7.95
2023-06-17T18:03:44.158Z,10.02
2023-06-17T18:05:46.803Z,11.95
2023-06-17T18:07:53.725Z,12.02
2023-06-17T18:09:56.461Z,7.75
2023-06-17T18:12:00.455Z,11.73
2023-06-17T18:14:03.090Z,11.13
2023-06-17T18:16:06.154Z,9.55
2023-06-17T18:18:08.892Z,9.70
2023-06-17T18:20:11.936Z,7.80
2023-06-17T18:22:16.595Z,8.32
2023-06-17T18:24:20.672Z,9.75
2023-06-17T18:26:23.592Z,7.55
2023-06-17T18:28:27.553Z,8.18
2023-06-17T18:30:30.466Z,8.85
2023-06-17T18:32:33.199Z,7.55
2023-06-17T18:34:35.868Z,8.82
2023-06-17T18:36:38.579Z,9.32
2023-06-17T18:38:43.547Z,10.85
2023-06-17T18:40:47.352Z,6.93
2023-06-17T18:42:50.120Z,9.43
2023-06-17T18:44:54.142Z,10.00
2023-06-17T18:46:57.404Z,8.68
2023-06-17T18:49:00.193Z,11.43
2023-06-17T18:51:03.144Z,10.30
2023-06-17T18:53:06.760Z,9.35
2023-06-17T18:55:09.751Z,8.60
2023-06-17T18:57:12.493Z,12.63
2023-06-17T18:59:15.729Z,13.90
2023-06-17T19:01:19.933Z,10.40
2023-06-17T19:03:22.612Z,9.40
2023-06-17T19:05:25.223Z,9.65
2023-06-17T19:07:27.862Z,11.80
2023-06-17T19:09:30.591Z,12.15
2023-06-17T19:11:33.223Z,8.63
2023-06-17T19:13:35.974Z,9.25
2023-06-17T19:15:39.758Z,13.93
2023-06-17T19:17:44.105Z,11.73
2023-06-17T19:19:47.789Z,11.85
2023-06-17T19:21:50.836Z,10.35
2023-06-17T19:23:54.080Z,11.80
2023-06-17T19:25:56.862Z,10.23
2023-06-17T19:27:59.823Z,10.77
2023-06-17T19:30:05.249Z,11.15
2023-06-17T19:32:08.648Z,11.38
2023-06-17T19:34:12.688Z,9.90
2023-06-17T19:36:15.431Z,14.10
2023-06-17T19:38:18.084Z,12.52
2023-06-17T19:40:21.052Z,15.43
2023-06-17T19:42:24.265Z,13.13
2023-06-17T19:44:33.367Z,12.13
2023-06-17T19:46:36.357Z,16.45
2023-06-17T19:48:39.191Z,22.70
2023-06-17T19:50:43.986Z,27.05
2023-06-17T19:52:46.680Z,36.50
2023-06-17T19:54:49.366Z,41.50
2023-06-17T19:56:52.327Z,40.05
2023-06-17T19:58:54.954Z,35.60
2023-06-17T20:01:01.731Z,39.50
2023-06-17T20:03:05.087Z,35.10
2023-06-17T20:05:09.578Z,37.53
2023-06-17T20:07:13.880Z,32.70
2023-06-17T20:09:16.684Z,31.50
2023-06-17T20:11:20.277Z,28.60
2023-06-17T20:13:23.380Z,30.30
2023-06-17T20:15:26.927Z,32.08
2023-06-17T20:17:29.758Z,29.50
2023-06-17T20:19:32.414Z,29.25
2023-06-17T20:21:35.069Z,23.55
2023-06-17T20:23:40.639Z,20.75
2023-06-17T20:25:44.398Z,24.75
2023-06-17T20:27:48.205Z,25.92
2023-06-17T20:29:51.755Z,28.48
2023-06-17T20:31:54.414Z,23.15
2023-06-17T20:33:57.003Z,24.75
2023-06-17T20:35:59.679Z,23.13
2023-06-17T20:38:02.929Z,22.90
2023-06-17T20:40:11.462Z,16.90
2023-06-17T20:42:14.221Z,15.27
2023-06-17T20:44:16.975Z,15.63
2023-06-17T20:46:19.677Z,14.32
2023-06-17T20:48:22.313Z,10.55
2023-06-17T20:50:26.280Z,15.00
2023-06-17T20:52:30.741Z,12.63
2023-06-17T20:57:00.765Z,16.17
2023-06-17T20:59:03.839Z,15.63
2023-06-17T21:01:06.562Z,16.77
2023-06-17T21:03:11.485Z,13.80
2023-06-17T21:05:14.185Z,13.65
2023-06-17T21:07:16.996Z,14.95
2023-06-17T21:09:20.047Z,15.65
2023-06-17T21:11:23.041Z,16.45
2023-06-17T21:13:27.040Z,13.73
2023-06-17T21:15:29.778Z,14.57
2023-06-17T21:17:32.465Z,14.93
2023-06-17T21:19:35.142Z,13.13
2023-06-17T21:21:37.867Z,13.23
2023-06-17T21:23:40.861Z,16.67
2023-06-17T21:25:43.762Z,15.48
2023-06-17T21:27:47.144Z,13.52
2023-06-17T21:29:51.175Z,13.07
2023-06-17T21:31:53.915Z,11.32
2023-06-17T21:33:56.560Z,13.02
2023-06-17T21:35:59.465Z,14.43
2023-06-17T21:38:02.119Z,12.57
2023-06-17T21:40:05.280Z,11.90
2023-06-17T21:42:08.181Z,8.95
2023-06-17T21:44:10.831Z,9.25
2023-06-17T21:46:14.968Z,11.98
2023-06-17T21:48:18.114Z,10.88
2023-06-17T21:50:21.292Z,12.05
2023-06-17T21:52:24.117Z,10.85
2023-06-17T21:54:26.904Z,10.38
2023-06-17T21:56:29.646Z,12.23
2023-06-17T21:58:32.282Z,14.93
2023-06-17T22:00:34.963Z,11.65
2023-06-17T22:02:39.063Z,10.65
2023-06-17T22:04:41.766Z,12.10
2023-06-17T22:06:44.867Z,9.75
2023-06-17T22:09:18.328Z,12.45
2023-06-17T22:11:21.221Z,11.05
2023-06-17T22:13:23.907Z,9.68
2023-06-17T22:15:27.233Z,11.85
2023-06-17T22:17:29.977Z,15.93
2023-06-17T22:19:34.634Z,11.55
2023-06-17T22:21:37.823Z,10.68
2023-06-17T22:23:40.529Z,9.02
2023-06-17T22:25:43.497Z,14.82
2023-06-17T22:27:46.606Z,9.80
2023-06-17T22:29:49.253Z,10.75
2023-06-17T22:31:51.897Z,11.77
2023-06-17T22:33:54.561Z,11.20
2023-06-17T22:35:58.587Z,14.38
2023-06-17T22:38:01.227Z,12.73
2023-06-17T22:40:06.573Z,11.23
2023-06-17T22:42:09.310Z,12.30
2023-06-17T22:44:11.972Z,11.38
2023-06-17T22:46:14.651Z,10.18
2023-06-17T22:48:17.271Z,13.88
2023-06-17T22:50:20.264Z,11.07
2023-06-17T22:52:24.574Z,12.88
2023-06-17T22:54:27.196Z,12.60
2023-06-17T22:56:29.828Z,12.63
2023-06-17T22:58:32.714Z,14.60
2023-06-17T23:00:35.480Z,13.70
2023-06-17T23:02:38.237Z,12.02
2023-06-17T23:04:41.515Z,16.00
2023-06-17T23:06:44.197Z,14.88
2023-06-17T23:08:48.113Z,13.43
2023-06-17T23:10:50.781Z,14.55
2023-06-17T23:12:53.488Z,10.32
2023-06-17T23:14:56.196Z,10.50
2023-06-17T23:16:58.945Z,10.48
2023-06-17T23:19:02.411Z,8.85
2023-06-17T23:21:05.923Z,10.65
2023-06-17T23:23:08.576Z,10.18
2023-06-17T23:25:12.579Z,11.95
2023-06-17T23:27:16.470Z,12.88
2023-06-17T23:29:19.765Z,11.23
2023-06-17T23:31:22.426Z,11.63
2023-06-17T23:33:26.608Z,14.70
2023-06-17T23:37:47.275Z,16.08
2023-06-17T23:39:49.943Z,13.40
2023-06-17T23:41:54.504Z,15.43
2023-06-17T23:43:57.163Z,13.65
2023-06-17T23:50:24.459Z,13.27
2023-06-17T23:52:27.302Z,13.63
2023-06-17T23:54:29.927Z,16.83
2023-06-17T23:56:32.559Z,15.30
2023-06-17T23:58:35.249Z,11.45
